Time;durP1;ratioP1;P1;durP2;ratioP2;P2;SDS_P1;SDS_P2;PMS_P1;PMS_P2;Temp;Humidity;BMP_temperature;BMP_pressure;BME280_temperature;BME280_humidity;BME280_pressure;Samples;Min_cycle;Max_cycle;Signal;HPM_P1;HPM_P2
2021/12/13 00:01:59;;;;;;;;;24.25;20.25;;;;;;;;5054483;28;45273;-78
2021/12/13 00:04:27;;;;;;;;;17.75;16.75;;;;;;;;5057326;28;45323;-79
2021/12/13 00:06:55;;;;;;;;;25.25;18.75;;;;;;;;5054727;28;45504;-79
2021/12/13 00:09:23;;;;;;;;;22.25;20.00;;;;;;;;5054380;28;46982;-78
2021/12/13 00:11:50;;;;;;;;;23.50;22.00;;;;;;;;5054807;28;45478;-79
2021/12/13 00:14:23;;;;;;;;;21.50;17.75;;;;;;;;5054834;28;45467;-79
2021/12/13 00:16:55;;;;;;;;;19.50;18.25;;;;;;;;5054101;28;45331;-80
2021/12/13 00:19:23;;;;;;;;;26.75;22.50;;;;;;;;5056315;28;46231;-80
2021/12/13 00:21:57;;;;;;;;;22.25;18.25;;;;;;;;5053748;28;45245;-81
2021/12/13 00:24:25;;;;;;;;;27.25;21.00;;;;;;;;5055171;28;45381;-81
2021/12/13 00:26:59;;;;;;;;;26.50;22.75;;;;;;;;5053765;28;45515;-80
2021/12/13 00:29:26;;;;;;;;;24.00;20.25;;;;;;;;5052191;28;46532;-80
2021/12/13 00:31:59;;;;;;;;;25.25;21.00;;;;;;;;5055733;28;45417;-80
2021/12/13 00:34:32;;;;;;;;;20.50;19.50;;;;;;;;5057351;28;45498;-81
2021/12/13 00:37:14;;;;;;;;;24.25;20.25;;;;;;;;5053782;28;45281;-80
2021/12/13 00:39:47;;;;;;;;;22.75;21.00;;;;;;;;5053478;28;46292;-82
2021/12/13 00:42:12;;;;;;;;;26.25;23.25;;;;;;;;5053677;28;45428;-80
2021/12/13 00:44:41;;;;;;;;;19.00;16.25;;;;;;;;5054366;28;45328;-81
2021/12/13 00:47:08;;;;;;;;;19.50;19.50;;;;;;;;5054091;28;45449;-81
2021/12/13 00:49:35;;;;;;;;;20.25;20.00;;;;;;;;5055858;28;47219;-82
2021/12/13 00:52:02;;;;;;;;;23.00;18.00;;;;;;;;5053273;28;45455;-81
2021/12/13 00:54:33;;;;;;;;;21.50;20.00;;;;;;;;5054621;28;45369;-78
2021/12/13 00:56:59;;;;;;;;;18.00;18.00;;;;;;;;5053217;28;45292;-79
2021/12/13 00:59:32;;;;;;;;;24.50;21.00;;;;;;;;5053841;28;46098;-77
2021/12/13 01:02:07;;;;;;;;;20.25;19.75;;;;;;;;5054349;28;45457;-79
2021/12/13 01:05:04;;;;;;;;;21.00;17.50;;;;;;;;5051943;28;45488;-79
2021/12/13 01:07:32;;;;;;;;;17.00;17.00;;;;;;;;4939007;28;45604;-79
2021/12/13 01:10:16;;;;;;;;;18.00;15.00;;;;;;;;4951582;28;45508;-79
2021/12/13 01:12:42;;;;;;;;;17.00;14.75;;;;;;;;4951216;28;45455;-79
2021/12/13 01:15:14;;;;;;;;;22.00;17.00;;;;;;;;4951271;28;45646;-80
2021/12/13 01:17:57;;;;;;;;;18.50;17.00;;;;;;;;4951485;28;45398;-80
2021/12/13 01:20:32;;;;;;;;;21.50;18.00;;;;;;;;4952325;28;45726;-80
2021/12/13 01:23:03;;;;;;;;;20.75;18.75;;;;;;;;4952093;28;45510;-79
2021/12/13 01:25:41;;;;;;;;;16.25;13.75;;;;;;;;4954184;28;45546;-79
2021/12/13 01:28:17;;;;;;;;;19.25;14.75;;;;;;;;4954133;28;45480;-80
2021/12/13 01:30:47;;;;;;;;;16.50;16.50;;;;;;;;4951782;28;46098;-80
2021/12/13 01:33:12;;;;;;;;;18.00;17.00;;;;;;;;4954519;28;45485;-80
2021/12/13 01:35:39;;;;;;;;;20.50;16.75;;;;;;;;4951012;28;45790;-80
2021/12/13 01:38:06;;;;;;;;;18.50;14.25;;;;;;;;4952276;28;45463;-80
2021/12/13 01:40:33;;;;;;;;;13.75;12.50;;;;;;;;4953537;28;45409;-79
2021/12/13 01:43:10;;;;;;;;;20.00;17.75;;;;;;;;4998127;28;45510;-79
2021/12/13 01:45:38;;;;;;;;;16.00;15.50;;;;;;;;5051792;28;45475;-79
2021/12/13 01:48:04;;;;;;;;;19.75;17.75;;;;;;;;5052111;28;45295;-79
2021/12/13 01:50:41;;;;;;;;;15.00;14.25;;;;;;;;5051748;28;46298;-79
2021/12/13 01:53:06;;;;;;;;;18.75;14.00;;;;;;;;5037910;28;45439;-79
2021/12/13 01:55:35;;;;;;;;;18.50;16.00;;;;;;;;5054877;28;45405;-79
2021/12/13 01:58:34;;;;;;;;;18.00;16.25;;;;;;;;5052949;28;45584;-80
2021/12/13 02:01:22;;;;;;;;;19.00;13.75;;;;;;;;5054365;28;45598;-80
2021/12/13 02:03:54;;;;;;;;;12.75;12.00;;;;;;;;5046938;28;45470;-80
2021/12/13 02:06:29;;;;;;;;;18.00;16.50;;;;;;;;5053684;28;45455;-79
2021/12/13 02:08:56;;;;;;;;;15.75;14.75;;;;;;;;5052212;28;45376;-78
2021/12/13 02:11:22;;;;;;;;;13.75;13.00;;;;;;;;5054171;28;45655;-79
2021/12/13 02:14:05;;;;;;;;;16.25;15.50;;;;;;;;5053551;28;45623;-81
2021/12/13 02:19:23;;;;;;;;;13.75;13.75;;;;;;;;5054047;28;45458;-80
2021/12/13 02:21:56;;;;;;;;;11.50;11.25;;;;;;;;5051622;28;45431;-80
2021/12/13 02:24:22;;;;;;;;;19.75;16.50;;;;;;;;5051644;28;45541;-80
2021/12/13 02:26:48;;;;;;;;;13.00;12.75;;;;;;;;5034710;28;45541;-77
2021/12/13 02:29:22;;;;;;;;;17.50;15.00;;;;;;;;5052896;28;45543;-81
2021/12/13 02:31:48;;;;;;;;;19.25;13.25;;;;;;;;5052381;28;46194;-78
2021/12/13 02:34:15;;;;;;;;;16.50;13.75;;;;;;;;5055315;28;45534;-78
2021/12/13 02:36:44;;;;;;;;;12.50;12.50;;;;;;;;5052851;28;45493;-77
2021/12/13 02:39:11;;;;;;;;;15.75;13.50;;;;;;;;5052735;28;45237;-77
2021/12/13 02:41:37;;;;;;;;;16.25;15.00;;;;;;;;5052976;28;46418;-78
2021/12/13 02:44:13;;;;;;;;;16.25;14.00;;;;;;;;5053098;28;45539;-80
2021/12/13 02:46:39;;;;;;;;;17.00;17.00;;;;;;;;5053813;28;45321;-80
2021/12/13 02:49:08;;;;;;;;;13.25;13.25;;;;;;;;5054192;28;45364;-80
2021/12/13 02:51:39;;;;;;;;;17.00;17.00;;;;;;;;5052611;28;46209;-80
2021/12/13 02:54:10;;;;;;;;;17.00;15.00;;;;;;;;5046760;28;45409;-80
2021/12/13 02:56:39;;;;;;;;;19.50;18.25;;;;;;;;5052831;28;45321;-80
2021/12/13 02:59:05;;;;;;;;;20.75;17.50;;;;;;;;5052839;28;45406;-80
2021/12/13 03:01:33;;;;;;;;;12.50;11.75;;;;;;;;5054294;28;46264;-82
2021/12/13 03:04:01;;;;;;;;;13.25;13.00;;;;;;;;5054580;28;45378;-82
2021/12/13 03:06:30;;;;;;;;;11.25;10.25;;;;;;;;5054984;28;45234;-82
2021/12/13 03:08:59;;;;;;;;;12.50;12.50;;;;;;;;5061473;28;45447;-82
2021/12/13 03:11:29;;;;;;;;;13.75;13.75;;;;;;;;5060001;28;46909;-81
2021/12/13 03:13:57;;;;;;;;;12.75;11.50;;;;;;;;5055804;28;45388;-80
2021/12/13 03:16:25;;;;;;;;;16.00;14.75;;;;;;;;5057225;28;45449;-80
2021/12/13 03:18:59;;;;;;;;;17.75;17.25;;;;;;;;5054811;28;45358;-82
2021/12/13 03:21:24;;;;;;;;;14.25;13.00;;;;;;;;5054908;28;47395;-82
2021/12/13 03:24:02;;;;;;;;;17.60;14.60;;;;;;;;5055009;28;45456;-82
2021/12/13 03:26:46;;;;;;;;;14.25;12.50;;;;;;;;5037700;28;45845;-82
2021/12/13 03:29:11;;;;;;;;;15.25;12.50;;;;;;;;5041145;28;45514;-79
2021/12/13 03:31:39;;;;;;;;;18.00;16.50;;;;;;;;5056065;28;46150;-79
2021/12/13 03:34:07;;;;;;;;;17.25;13.50;;;;;;;;5056117;28;45501;-79
2021/12/13 03:36:45;;;;;;;;;18.00;17.00;;;;;;;;5056749;28;45443;-80
2021/12/13 03:39:20;;;;;;;;;13.00;12.75;;;;;;;;5055931;28;45463;-80
2021/12/13 03:41:47;;;;;;;;;24.50;16.75;;;;;;;;5053754;28;46586;-80
2021/12/13 03:44:15;;;;;;;;;16.25;16.25;;;;;;;;5054519;28;45523;-80
2021/12/13 03:46:41;;;;;;;;;15.00;13.25;;;;;;;;5056101;28;45343;-82
2021/12/13 03:49:08;;;;;;;;;14.50;13.50;;;;;;;;5056778;28;45598;-82
2021/12/13 03:51:35;;;;;;;;;18.50;16.50;;;;;;;;5052519;28;45423;-80
2021/12/13 03:54:01;;;;;;;;;17.75;16.75;;;;;;;;5053318;28;45530;-79
2021/12/13 03:56:30;;;;;;;;;16.50;12.25;;;;;;;;5054715;28;45650;-80
2021/12/13 03:58:58;;;;;;;;;16.00;11.75;;;;;;;;5055258;28;45507;-80
2021/12/13 04:01:28;;;;;;;;;13.50;13.00;;;;;;;;5056956;28;45574;-82
2021/12/13 04:03:56;;;;;;;;;16.50;15.50;;;;;;;;5055218;28;45457;-79
2021/12/13 04:06:22;;;;;;;;;17.75;13.00;;;;;;;;5054096;28;45482;-80
2021/12/13 04:08:50;;;;;;;;;16.50;15.50;;;;;;;;5055241;28;45502;-81
2021/12/13 04:11:16;;;;;;;;;14.00;14.00;;;;;;;;5055083;28;46444;-80
2021/12/13 04:13:44;;;;;;;;;16.25;14.50;;;;;;;;5055752;28;45399;-79
2021/12/13 04:16:34;;;;;;;;;14.25;12.50;;;;;;;;5055379;28;45813;-79
2021/12/13 04:21:26;;;;;;;;;20.00;16.00;;;;;;;;5052653;28;45306;-79
2021/12/13 04:23:55;;;;;;;;;8.00;8.00;;;;;;;;5053661;28;45296;-79
2021/12/13 04:26:20;;;;;;;;;13.25;13.25;;;;;;;;5054800;28;45377;-79
2021/12/13 04:28:47;;;;;;;;;17.50;12.25;;;;;;;;5054999;28;45349;-79
2021/12/13 04:31:18;;;;;;;;;15.25;12.75;;;;;;;;5054460;28;46144;-79
2021/12/13 04:33:45;;;;;;;;;18.00;15.00;;;;;;;;5054731;28;45417;-79
2021/12/13 04:36:18;;;;;;;;;18.50;16.25;;;;;;;;5054210;28;45364;-79
2021/12/13 04:38:52;;;;;;;;;16.00;13.50;;;;;;;;5052180;28;45471;-79
2021/12/13 04:41:44;;;;;;;;;12.00;12.00;;;;;;;;5053938;28;46113;-79
2021/12/13 04:44:11;;;;;;;;;11.25;10.25;;;;;;;;5034674;28;45261;-79
2021/12/13 04:46:38;;;;;;;;;15.50;14.50;;;;;;;;5055871;28;45293;-79
2021/12/13 04:49:06;;;;;;;;;11.75;11.25;;;;;;;;5053914;28;45505;-79
2021/12/13 04:51:40;;;;;;;;;12.50;12.50;;;;;;;;5054098;28;47113;-78
2021/12/13 04:54:06;;;;;;;;;14.75;14.00;;;;;;;;5052639;28;45603;-78
2021/12/13 04:56:32;;;;;;;;;13.50;13.00;;;;;;;;5054418;28;45339;-78
2021/12/13 04:58:59;;;;;;;;;14.75;13.00;;;;;;;;5052763;28;45344;-78
2021/12/13 05:01:24;;;;;;;;;18.50;16.00;;;;;;;;5055767;28;46382;-78
2021/12/13 05:03:55;;;;;;;;;11.25;9.50;;;;;;;;5052451;28;45214;-78
2021/12/13 05:06:21;;;;;;;;;9.50;7.75;;;;;;;;5055418;28;45441;-78
2021/12/13 05:08:48;;;;;;;;;10.00;9.25;;;;;;;;5046380;28;45591;-78
2021/12/13 05:11:14;;;;;;;;;13.25;12.25;;;;;;;;5066070;28;45383;-77
2021/12/13 05:13:44;;;;;;;;;9.25;9.25;;;;;;;;5067964;28;45396;-78
2021/12/13 05:16:10;;;;;;;;;8.00;8.00;;;;;;;;5056927;28;45321;-77
2021/12/13 05:18:40;;;;;;;;;12.75;11.00;;;;;;;;5053777;28;45482;-77
2021/12/13 05:21:08;;;;;;;;;10.75;10.50;;;;;;;;5054070;28;46103;-77
2021/12/13 05:23:38;;;;;;;;;6.00;6.00;;;;;;;;5053488;28;45432;-77
2021/12/13 05:26:06;;;;;;;;;9.50;8.75;;;;;;;;5037661;28;45538;-77
2021/12/13 05:28:46;;;;;;;;;6.50;6.50;;;;;;;;5054894;28;45205;-77
2021/12/13 05:31:18;;;;;;;;;10.25;9.25;;;;;;;;5055299;28;45454;-77
2021/12/13 05:33:48;;;;;;;;;9.00;8.00;;;;;;;;5053021;28;45523;-78
2021/12/13 05:36:18;;;;;;;;;8.00;8.00;;;;;;;;5053517;28;45592;-79
2021/12/13 05:38:45;;;;;;;;;6.25;4.75;;;;;;;;5051801;28;45491;-77
2021/12/13 05:41:21;;;;;;;;;10.75;9.25;;;;;;;;5051209;28;46381;-76
2021/12/13 05:43:48;;;;;;;;;11.00;9.25;;;;;;;;5052995;28;45549;-78
2021/12/13 05:46:16;;;;;;;;;9.50;9.00;;;;;;;;5053698;28;45245;-76
2021/12/13 05:48:44;;;;;;;;;10.00;10.00;;;;;;;;5034689;28;45450;-80
2021/12/13 05:51:21;;;;;;;;;12.75;9.75;;;;;;;;5053323;28;46373;-79
2021/12/13 05:53:47;;;;;;;;;14.50;10.25;;;;;;;;5053364;28;45540;-80
2021/12/13 05:56:14;;;;;;;;;12.00;10.75;;;;;;;;5055175;28;45315;-80
2021/12/13 05:58:42;;;;;;;;;14.75;9.00;;;;;;;;5054875;28;45424;-79
2021/12/13 06:01:12;;;;;;;;;13.50;10.50;;;;;;;;5053954;28;46382;-77
2021/12/13 06:03:40;;;;;;;;;10.50;8.25;;;;;;;;5052533;28;45411;-78
2021/12/13 06:06:10;;;;;;;;;8.25;7.75;;;;;;;;5053448;28;45363;-77
2021/12/13 06:08:39;;;;;;;;;10.25;9.00;;;;;;;;5052486;28;45608;-78
2021/12/13 06:11:09;;;;;;;;;12.75;11.25;;;;;;;;5053026;28;47213;-78
2021/12/13 06:13:43;;;;;;;;;10.50;10.50;;;;;;;;5055695;28;45361;-77
2021/12/13 06:16:14;;;;;;;;;10.00;9.25;;;;;;;;5055074;28;45339;-78
2021/12/13 06:18:58;;;;;;;;;9.50;9.50;;;;;;;;5053627;28;45250;-78
2021/12/13 06:21:32;;;;;;;;;12.50;12.00;;;;;;;;5050183;28;45464;-78
2021/12/13 06:23:58;;;;;;;;;7.75;7.75;;;;;;;;5052369;28;45955;-80
2021/12/13 06:26:28;;;;;;;;;9.25;6.00;;;;;;;;5053035;28;45458;-79
2021/12/13 06:28:55;;;;;;;;;12.50;9.75;;;;;;;;5052869;28;45269;-79
2021/12/13 06:31:21;;;;;;;;;11.75;11.00;;;;;;;;5052907;28;45621;-82
2021/12/13 06:33:52;;;;;;;;;15.50;14.50;;;;;;;;5052002;28;45542;-82
2021/12/13 06:36:29;;;;;;;;;13.75;11.25;;;;;;;;5052652;28;45260;-82
2021/12/13 06:38:59;;;;;;;;;13.75;12.75;;;;;;;;5054386;28;45433;-80
2021/12/13 06:41:24;;;;;;;;;11.25;9.25;;;;;;;;5055011;28;46561;-82
2021/12/13 06:43:51;;;;;;;;;11.25;10.25;;;;;;;;5055653;28;45331;-82
2021/12/13 06:46:22;;;;;;;;;11.00;8.75;;;;;;;;5057386;28;45427;-81
2021/12/13 06:48:49;;;;;;;;;12.25;11.75;;;;;;;;5055999;28;45365;-82
2021/12/13 06:51:17;;;;;;;;;11.75;11.75;;;;;;;;5054972;28;46295;-81
2021/12/13 06:53:58;;;;;;;;;12.50;10.50;;;;;;;;5056545;28;45511;-79
2021/12/13 06:56:26;;;;;;;;;13.00;9.00;;;;;;;;5054401;28;45551;-82
2021/12/13 06:58:53;;;;;;;;;14.00;11.00;;;;;;;;5054609;28;45396;-84
2021/12/13 07:01:19;;;;;;;;;12.00;10.00;;;;;;;;5055678;28;45515;-80
2021/12/13 07:03:56;;;;;;;;;10.25;9.00;;;;;;;;5055170;28;45475;-81
2021/12/13 07:06:22;;;;;;;;;11.50;11.50;;;;;;;;5034672;28;45491;-77
2021/12/13 07:08:59;;;;;;;;;9.25;7.75;;;;;;;;5031818;28;45289;-76
2021/12/13 07:11:25;;;;;;;;;11.75;11.25;;;;;;;;5061154;28;47146;-76
2021/12/13 07:14:01;;;;;;;;;10.25;10.00;;;;;;;;5061728;28;45495;-76
2021/12/13 07:16:32;;;;;;;;;11.00;10.25;;;;;;;;5057687;28;45459;-76
2021/12/13 07:19:02;;;;;;;;;7.25;7.25;;;;;;;;5056351;28;45507;-76
2021/12/13 07:21:33;;;;;;;;;16.00;11.75;;;;;;;;5054287;28;46141;-76
2021/12/13 07:26:44;;;;;;;;;9.50;9.50;;;;;;;;5123683;27;45406;-79
2021/12/13 07:29:17;;;;;;;;;9.75;7.75;;;;;;;;5111705;27;45266;-78
2021/12/13 07:31:44;;;;;;;;;8.75;6.00;;;;;;;;5096382;27;45714;-79
2021/12/13 07:34:12;;;;;;;;;8.25;6.00;;;;;;;;5119920;27;45428;-79
2021/12/13 07:36:37;;;;;;;;;13.00;12.00;;;;;;;;5110520;27;46234;-81
2021/12/13 07:39:08;;;;;;;;;8.25;8.25;;;;;;;;5112351;27;45318;-81
2021/12/13 07:41:48;;;;;;;;;10.00;10.00;;;;;;;;5094986;27;45335;-78
2021/12/13 07:44:33;;;;;;;;;7.50;7.50;;;;;;;;5095109;27;45648;-82
2021/12/13 07:47:19;;;;;;;;;10.00;10.00;;;;;;;;5122829;27;46922;-89
2021/12/13 07:49:47;;;;;;;;;3.50;3.50;;;;;;;;5126082;27;45600;-79
2021/12/13 07:52:24;;;;;;;;;6.50;6.00;;;;;;;;5114271;27;45397;-82
2021/12/13 07:54:50;;;;;;;;;8.25;5.50;;;;;;;;5111260;27;45205;-82
2021/12/13 07:57:20;;;;;;;;;5.50;4.75;;;;;;;;5108881;27;46453;-82
2021/12/13 07:59:46;;;;;;;;;6.00;6.00;;;;;;;;5104653;27;45314;-81
2021/12/13 08:02:26;;;;;;;;;8.75;5.50;;;;;;;;5106094;27;45444;-80
2021/12/13 08:04:52;;;;;;;;;6.00;6.00;;;;;;;;5107167;27;45423;-82
2021/12/13 08:07:22;;;;;;;;;5.50;4.25;;;;;;;;5100369;27;46746;-81
2021/12/13 08:09:52;;;;;;;;;7.75;7.00;;;;;;;;5121210;27;45463;-80
2021/12/13 08:12:20;;;;;;;;;2.00;2.00;;;;;;;;5124262;27;45581;-80
2021/12/13 08:14:48;;;;;;;;;2.75;2.75;;;;;;;;5116173;27;45503;-83
2021/12/13 08:17:16;;;;;;;;;6.00;4.00;;;;;;;;5110592;27;45808;-83
2021/12/13 08:19:43;;;;;;;;;4.50;4.00;;;;;;;;5125594;27;45669;-80
2021/12/13 08:22:13;;;;;;;;;6.00;5.50;;;;;;;;5117394;27;45371;-83
2021/12/13 08:24:40;;;;;;;;;6.25;6.00;;;;;;;;5120253;27;45291;-83
2021/12/13 08:27:11;;;;;;;;;7.00;7.00;;;;;;;;5115870;27;46191;-81
2021/12/13 08:29:38;;;;;;;;;9.50;9.50;;;;;;;;5096113;27;45402;-82
2021/12/13 08:32:06;;;;;;;;;5.50;5.25;;;;;;;;5117740;27;45460;-83
2021/12/13 08:34:33;;;;;;;;;8.00;8.00;;;;;;;;5111463;27;45589;-80
2021/12/13 08:36:59;;;;;;;;;9.75;9.75;;;;;;;;5118034;27;46466;-82
2021/12/13 08:39:32;;;;;;;;;7.00;7.00;;;;;;;;5092648;27;45864;-83
2021/12/13 08:42:00;;;;;;;;;7.00;7.00;;;;;;;;5109477;27;45811;-86
2021/12/13 08:44:33;;;;;;;;;10.75;9.00;;;;;;;;5088146;27;45832;-84
2021/12/13 08:47:01;;;;;;;;;11.00;11.00;;;;;;;;5086119;27;46519;-83
2021/12/13 08:49:33;;;;;;;;;10.25;10.00;;;;;;;;5100746;27;45342;-82
2021/12/13 08:52:02;;;;;;;;;11.25;9.75;;;;;;;;5102715;27;45471;-87
2021/12/13 08:54:53;;;;;;;;;10.00;10.00;;;;;;;;5093390;27;45561;-84
2021/12/13 08:57:34;;;;;;;;;12.00;11.50;;;;;;;;5098711;27;46195;-86
2021/12/13 09:00:00;;;;;;;;;13.00;11.00;;;;;;;;5099418;27;45472;-86
2021/12/13 09:02:34;;;;;;;;;12.25;10.50;;;;;;;;5084063;27;45324;-82
2021/12/13 09:05:04;;;;;;;;;10.00;9.25;;;;;;;;5103321;27;45395;-83
2021/12/13 09:07:30;;;;;;;;;8.00;7.50;;;;;;;;5106758;27;46285;-80
2021/12/13 09:09:56;;;;;;;;;7.75;5.75;;;;;;;;5103267;27;44844;-82
2021/12/13 09:12:28;;;;;;;;;9.75;8.25;;;;;;;;5107753;27;45454;-85
2021/12/13 09:14:56;;;;;;;;;8.50;7.25;;;;;;;;5110456;27;45506;-82
2021/12/13 09:17:22;;;;;;;;;6.50;4.25;;;;;;;;5100841;27;46074;-79
2021/12/13 09:19:47;;;;;;;;;4.75;4.25;;;;;;;;5107542;27;45519;-83
2021/12/13 09:22:28;;;;;;;;;8.00;6.00;;;;;;;;5103425;27;45289;-81
2021/12/13 09:25:09;;;;;;;;;4.00;4.00;;;;;;;;5103120;27;45540;-81
2021/12/13 09:27:34;;;;;;;;;6.75;5.75;;;;;;;;5102773;27;46215;-81
2021/12/13 09:30:06;;;;;;;;;8.00;4.75;;;;;;;;5100467;27;45473;-83
2021/12/13 09:32:33;;;;;;;;;10.75;6.00;;;;;;;;5102980;27;45460;-84
2021/12/13 09:35:20;;;;;;;;;6.00;6.00;;;;;;;;5102487;27;45162;-83
2021/12/13 09:37:46;;;;;;;;;6.50;6.50;;;;;;;;5113416;27;47553;-84
2021/12/13 09:40:12;;;;;;;;;8.50;7.50;;;;;;;;5093368;27;45443;-83
2021/12/13 09:42:48;;;;;;;;;7.00;5.25;;;;;;;;5107297;27;45253;-84
2021/12/13 09:45:19;;;;;;;;;5.00;4.00;;;;;;;;5091079;27;45446;-83
2021/12/13 09:47:45;;;;;;;;;5.50;4.75;;;;;;;;5118613;27;45419;-84
2021/12/13 09:50:16;;;;;;;;;5.00;5.00;;;;;;;;5126510;27;44781;-83
2021/12/13 09:52:42;;;;;;;;;4.00;4.00;;;;;;;;5127079;27;44838;-83
2021/12/13 09:55:07;;;;;;;;;3.75;3.75;;;;;;;;5123560;27;47082;-83
2021/12/13 09:57:38;;;;;;;;;6.25;5.00;;;;;;;;5107034;27;45405;-83
2021/12/13 10:00:11;;;;;;;;;5.00;4.00;;;;;;;;5111428;27;45382;-82
2021/12/13 10:02:40;;;;;;;;;6.50;5.00;;;;;;;;5111090;27;45442;-83
2021/12/13 10:05:07;;;;;;;;;7.50;6.50;;;;;;;;5081705;27;45398;-84
2021/12/13 10:07:35;;;;;;;;;6.00;4.00;;;;;;;;5104523;27;45284;-84
2021/12/13 10:10:06;;;;;;;;;1.75;1.75;;;;;;;;5115113;27;45299;-84
2021/12/13 10:12:43;;;;;;;;;3.75;3.00;;;;;;;;5109399;27;45284;-83
2021/12/13 10:15:29;;;;;;;;;1.00;1.00;;;;;;;;5099797;27;45392;-82
2021/12/13 10:17:57;;;;;;;;;5.50;4.75;;;;;;;;5111555;27;47078;-84
2021/12/13 10:20:34;;;;;;;;;2.75;2.75;;;;;;;;5097276;27;45923;-84
2021/12/13 10:23:00;;;;;;;;;7.00;7.00;;;;;;;;5105395;27;45252;-85
2021/12/13 10:25:31;;;;;;;;;5.50;3.00;;;;;;;;5114693;27;45491;-83
2021/12/13 10:27:56;;;;;;;;;3.25;3.25;;;;;;;;5101412;27;46400;-84
2021/12/13 10:30:23;;;;;;;;;4.75;4.75;;;;;;;;5106872;27;45437;-84
2021/12/13 10:32:49;;;;;;;;;4.50;3.50;;;;;;;;5103147;27;45398;-85
2021/12/13 10:35:17;;;;;;;;;7.00;7.00;;;;;;;;5114632;27;45402;-84
2021/12/13 10:37:46;;;;;;;;;8.25;7.50;;;;;;;;5099483;27;47239;-84
2021/12/13 10:40:14;;;;;;;;;7.00;7.00;;;;;;;;5106984;27;45540;-84
2021/12/13 10:42:41;;;;;;;;;4.25;4.25;;;;;;;;5114397;27;45389;-84
2021/12/13 10:45:08;;;;;;;;;5.25;4.25;;;;;;;;5093137;27;44804;-85
2021/12/13 10:47:36;;;;;;;;;11.00;9.75;;;;;;;;5109929;27;46801;-85
2021/12/13 10:50:03;;;;;;;;;11.25;10.75;;;;;;;;5083767;27;45419;-85
2021/12/13 10:52:34;;;;;;;;;6.00;6.00;;;;;;;;5105228;27;45399;-84
2021/12/13 10:55:02;;;;;;;;;5.00;4.50;;;;;;;;5112763;27;45316;-83
2021/12/13 10:57:34;;;;;;;;;5.50;5.50;;;;;;;;5085675;27;47512;-82
2021/12/13 11:00:00;;;;;;;;;5.00;5.00;;;;;;;;5111518;27;45397;-83
2021/12/13 11:02:29;;;;;;;;;5.00;4.25;;;;;;;;5099015;27;45187;-84
2021/12/13 11:04:59;;;;;;;;;6.50;5.00;;;;;;;;5101633;27;45419;-84
2021/12/13 11:07:27;;;;;;;;;6.00;6.00;;;;;;;;5125380;27;45565;-85
2021/12/13 11:09:54;;;;;;;;;7.25;6.25;;;;;;;;5122946;27;45306;-83
2021/12/13 11:12:24;;;;;;;;;4.00;4.00;;;;;;;;5113345;27;44982;-84
2021/12/13 11:14:51;;;;;;;;;5.50;5.50;;;;;;;;5108710;27;45423;-84
2021/12/13 11:17:20;;;;;;;;;9.25;9.25;;;;;;;;5100088;27;45667;-85
2021/12/13 11:19:47;;;;;;;;;26.75;25.00;;;;;;;;5100247;27;45493;-84
2021/12/13 11:22:16;;;;;;;;;13.75;11.25;;;;;;;;5096774;27;45316;-84
2021/12/13 11:24:42;;;;;;;;;6.25;6.00;;;;;;;;5105086;27;45461;-85
2021/12/13 11:27:14;;;;;;;;;5.50;5.50;;;;;;;;5106293;27;45501;-85
2021/12/13 11:29:41;;;;;;;;;9.25;8.75;;;;;;;;5099463;27;45536;-85
2021/12/13 11:32:37;;;;;;;;;18.25;16.25;;;;;;;;5097754;27;45695;-86
2021/12/13 11:35:11;;;;;;;;;8.00;8.00;;;;;;;;5034305;28;45377;-86
2021/12/13 11:37:57;;;;;;;;;7.25;6.25;;;;;;;;5033621;28;45404;-86
2021/12/13 11:40:31;;;;;;;;;6.75;5.75;;;;;;;;5008542;28;45772;-85
2021/12/13 11:43:11;;;;;;;;;17.25;16.00;;;;;;;;5011328;28;44794;-87
2021/12/13 11:45:46;;;;;;;;;10.00;9.25;;;;;;;;5010353;28;45428;-87
2021/12/13 11:48:30;;;;;;;;;10.25;9.00;;;;;;;;4980458;28;48284;-83
2021/12/13 11:51:05;;;;;;;;;4.00;4.00;;;;;;;;4992133;28;45524;-86
2021/12/13 11:53:49;;;;;;;;;6.75;5.75;;;;;;;;4995586;28;45391;-86
2021/12/13 11:56:17;;;;;;;;;4.25;4.00;;;;;;;;4982411;28;45520;-85
2021/12/13 11:58:42;;;;;;;;;7.75;5.50;;;;;;;;4997436;28;47134;-84
2021/12/13 12:01:26;;;;;;;;;12.00;10.25;;;;;;;;4991256;28;45500;-84
2021/12/13 12:03:52;;;;;;;;;6.75;6.75;;;;;;;;4992693;28;45824;-81
2021/12/13 12:06:32;;;;;;;;;9.25;9.25;;;;;;;;4989285;28;45528;-84
2021/12/13 12:09:16;;;;;;;;;11.25;10.25;;;;;;;;4989861;28;47446;-84
2021/12/13 12:11:44;;;;;;;;;15.50;14.25;;;;;;;;5003300;28;45461;-89
2021/12/13 12:14:11;;;;;;;;;19.00;16.00;;;;;;;;5018859;28;45570;-88
2021/12/13 12:16:37;;;;;;;;;14.25;14.00;;;;;;;;5024018;27;45441;-86
2021/12/13 12:19:03;;;;;;;;;13.25;12.25;;;;;;;;5084202;27;46281;-83
2021/12/13 12:21:31;;;;;;;;;10.00;7.50;;;;;;;;5101292;27;45446;-84
2021/12/13 12:23:57;;;;;;;;;8.25;8.25;;;;;;;;5085133;27;44870;-85
2021/12/13 12:26:23;;;;;;;;;39.75;35.75;;;;;;;;5082362;27;45507;-85
2021/12/13 12:28:50;;;;;;;;;10.25;10.25;;;;;;;;5093399;27;45534;-84
2021/12/13 12:31:15;;;;;;;;;14.00;12.00;;;;;;;;5101091;27;45387;-81
2021/12/13 12:33:41;;;;;;;;;6.50;6.25;;;;;;;;5097158;27;45440;-83
2021/12/13 12:36:16;;;;;;;;;7.50;6.50;;;;;;;;5098691;27;45404;-83
2021/12/13 12:39:05;;;;;;;;;8.50;6.00;;;;;;;;5100659;27;47380;-84
2021/12/13 12:41:36;;;;;;;;;7.00;7.00;;;;;;;;5033151;28;45341;-83
2021/12/13 12:44:01;;;;;;;;;7.50;7.50;;;;;;;;5022759;28;45532;-83
2021/12/13 12:46:30;;;;;;;;;15.50;14.25;;;;;;;;5038535;28;45413;-83
2021/12/13 12:48:57;;;;;;;;;6.25;5.25;;;;;;;;5047213;28;46418;-83
2021/12/13 12:51:27;;;;;;;;;7.50;7.50;;;;;;;;5036893;28;45340;-83
2021/12/13 12:53:58;;;;;;;;;9.00;9.00;;;;;;;;5007786;28;45286;-82
2021/12/13 12:56:26;;;;;;;;;11.50;9.50;;;;;;;;5031507;28;45687;-81
2021/12/13 12:58:52;;;;;;;;;5.00;4.25;;;;;;;;5011271;28;48039;-82
2021/12/13 13:01:21;;;;;;;;;8.50;8.50;;;;;;;;5024600;28;45487;-84
2021/12/13 13:03:46;;;;;;;;;9.25;9.25;;;;;;;;5035022;28;45383;-83
2021/12/13 13:06:18;;;;;;;;;9.50;8.50;;;;;;;;5042026;28;45456;-83
2021/12/13 13:08:46;;;;;;;;;9.25;9.25;;;;;;;;5056518;28;46428;-82
2021/12/13 13:14:00;;;;;;;;;7.25;7.25;;;;;;;;5041381;28;45573;-83
2021/12/13 13:16:27;;;;;;;;;10.00;9.00;;;;;;;;5053752;28;45958;-83
2021/12/13 13:18:53;;;;;;;;;11.00;10.00;;;;;;;;5073920;27;46030;-83
2021/12/13 13:21:19;;;;;;;;;10.00;10.00;;;;;;;;5089476;27;47146;-81
2021/12/13 13:23:47;;;;;;;;;30.25;28.50;;;;;;;;5112735;27;45563;-81
2021/12/13 13:26:14;;;;;;;;;10.25;8.25;;;;;;;;5105984;27;45389;-83
2021/12/13 13:28:43;;;;;;;;;7.00;5.75;;;;;;;;5115834;27;47558;-83
2021/12/13 13:31:26;;;;;;;;;11.25;9.00;;;;;;;;5101390;27;45341;-83
2021/12/13 13:33:56;;;;;;;;;11.50;10.25;;;;;;;;5123882;27;45742;-82
2021/12/13 13:36:27;;;;;;;;;8.75;7.00;;;;;;;;5130709;27;45189;-83
2021/12/13 13:38:52;;;;;;;;;8.75;8.00;;;;;;;;5107873;27;45335;-82
2021/12/13 13:41:20;;;;;;;;;12.00;12.00;;;;;;;;5099189;27;45480;-83
2021/12/13 13:43:47;;;;;;;;;12.50;12.50;;;;;;;;5107804;27;45324;-82
2021/12/13 13:46:13;;;;;;;;;12.50;11.75;;;;;;;;5103283;27;45320;-81
2021/12/13 13:48:39;;;;;;;;;51.00;42.00;;;;;;;;5104741;27;46351;-82
2021/12/13 13:51:10;;;;;;;;;12.25;11.50;;;;;;;;5104451;27;45283;-83
2021/12/13 13:53:40;;;;;;;;;18.50;16.50;;;;;;;;5103795;27;45287;-82
2021/12/13 13:56:10;;;;;;;;;15.75;12.00;;;;;;;;5088784;27;45354;-83
2021/12/13 13:58:40;;;;;;;;;13.25;11.50;;;;;;;;5112120;27;46276;-84
2021/12/13 14:01:17;;;;;;;;;13.00;12.00;;;;;;;;5095320;27;45385;-82
2021/12/13 14:03:45;;;;;;;;;10.25;9.50;;;;;;;;5105053;27;45798;-82
2021/12/13 14:06:14;;;;;;;;;15.00;13.75;;;;;;;;5115409;27;45351;-82
2021/12/13 14:08:40;;;;;;;;;12.50;9.75;;;;;;;;5104962;27;47128;-83
2021/12/13 14:11:10;;;;;;;;;10.50;9.75;;;;;;;;5099772;27;45429;-82
2021/12/13 14:13:38;;;;;;;;;12.50;12.00;;;;;;;;5105025;27;45259;-82
2021/12/13 14:16:16;;;;;;;;;15.25;13.00;;;;;;;;5099191;27;45379;-82
2021/12/13 14:18:41;;;;;;;;;16.00;13.00;;;;;;;;5110546;27;45552;-82
2021/12/13 14:21:12;;;;;;;;;14.25;13.50;;;;;;;;5100106;27;45612;-83
2021/12/13 14:23:38;;;;;;;;;13.75;13.25;;;;;;;;5097088;27;45467;-82
2021/12/13 14:26:06;;;;;;;;;15.50;15.00;;;;;;;;5111413;27;45555;-84
2021/12/13 14:28:39;;;;;;;;;15.75;13.50;;;;;;;;5114069;27;46354;-82
2021/12/13 14:31:24;;;;;;;;;31.00;26.50;;;;;;;;5099409;27;45431;-83
2021/12/13 14:34:01;;;;;;;;;19.50;19.50;;;;;;;;5097982;27;45398;-84
2021/12/13 14:36:30;;;;;;;;;21.50;18.75;;;;;;;;5102716;27;45406;-82
2021/12/13 14:39:06;;;;;;;;;24.00;20.25;;;;;;;;5104234;27;47281;-82
2021/12/13 14:41:34;;;;;;;;;17.75;17.75;;;;;;;;5110138;27;45326;-81
2021/12/13 14:44:02;;;;;;;;;20.75;18.00;;;;;;;;5078394;27;45465;-82
2021/12/13 14:46:30;;;;;;;;;24.25;22.50;;;;;;;;5112113;27;45566;-82
2021/12/13 14:49:07;;;;;;;;;22.50;21.00;;;;;;;;5112189;27;46125;-81
2021/12/13 14:51:39;;;;;;;;;23.00;19.00;;;;;;;;5103813;27;45490;-82
2021/12/13 14:54:05;;;;;;;;;24.25;22.00;;;;;;;;5101256;27;45391;-81
2021/12/13 14:56:30;;;;;;;;;15.75;14.75;;;;;;;;5101361;27;45088;-82